Terminal Aerodrome Forecast
Issued by NWS

Home | Current Version | Previous Version | Text Only | Print | Product List | Glossary Off
Versions: 1 2 3 4 5 6 7 8 9 10 11 12 13 14 15 16 17 18 19 20 21 22 23

000
FTUS43 KBIS 072247 AAB
TAFDIK
TAF AMD
KDIK 072247Z 0723/0818 30025G30KT 2SM BLSN SCT012
     FM080200 29016KT P6SM BKN012
     FM081100 29012KT P6SM BKN015
     FM081500 29010KT P6SM BKN008=

USA.gov is the U.S. government's official web portal to all federal, state and local government web resources and services.